Terminal Aerodrome Forecast
Issued by NWS

Home | Current Version | Previous Version | Text Only | Print | Product List | Glossary On
Versions: 1 2 3 4 5 6 7 8 9 10 11 12 13
000
FTUS45 KRIW 190600 AAA
TAFRKS
TAF AMD
KRKS 190613Z 1906/2006 25010KT P6SM -SHRA VCTS SCT060CB BKN090
      TEMPO 1906/1909 VRB15G25KT -TSRA BKN050CB
     FM191200 26011KT P6SM VCSH SCT060 BKN080
     FM191700 27012KT P6SM FEW070 BKN110
     FM191900 27012G22KT P6SM SCT110
     FM200100 30010KT P6SM SCT120=

USA.gov is the U.S. government's official web portal to all federal, state and local government web resources and services.